Aérodrome :
LOGIN :

S'inscrire | Disclaimer

   EN    FR    IT 

 










Légende :    VFR   VFR Marginal   IFR   IFR Intensif   IFR Très Intensif
Visi : 
Plafond : 
>= 8 km
>= 3000ft
5 à 8 km
1000 à 3000 ft
1500m à 5 km
500 à 1000 ft
800 à 1500m
200 à 500 ft
< 800m
< 200 ft
Symboles :   Orages  Brouillard  Fortes neiges  Fortes précipitations  Vent > 20 kt
SIGMETs :   Divers  Orages  Givrage  Turbulence  Onde Orograph.  Cendres Volcan.






- Altitude de l'aérodrome : 778 ft
- Code IATA : BRQ


LKTB - Brno-Turany

DERNIER METAR :
  • 212130Z 35002KT CAVOK 13/12 Q1021 NOSIG

METARs EXPIRÉS :
  • 212100Z 32004KT CAVOK 12/11 Q1021 NOSIG
  • 212030Z VRB02KT CAVOK 12/11 Q1021 NOSIG
  • 212000Z 30002KT CAVOK 12/11 Q1021 NOSIG
  • 211930Z VRB01KT CAVOK 13/11 Q1021 NOSIG

TAF TAF LKTB
Valide du 21 à 18h jusqu'au 23 à 00h UTC


211700Z 2118/2300 VRB02KT CAVOK
BECMG 2121/2200 3000 BR SCT005
TEMPO 2200/2208 0700 FG BKN003
BECMG 2209/2211 18004KT 9999 SCT020
BECMG 2218/2222 5000 BR SCT007 BKN015
TEMPO 2222/2300 1400 BR BKN004



MET'MAP, la Météo Aéronautique d'un coup d'oeil ! - Copyright ORBIFLY Décembre 2007 - Disclaimer

ORBIFLY MET'MAP TEAM :

Programmation & Développement : Alexandra Zaïnal
Conception & Développement : Baudouin d'Aumeries
Co-Programmation & Développement : Marc-Olivier Méhu
Soutien technique & logistique : Manuel Goepfert

Contact : metmap@orbifly.com




SOURCES & CREDITS :

   NOAA